Latest Weather Observations for Ben Nevis

IDV60801

Issued at 7:32 pm EDT Monday 23 January 2017 (issued every 30 minutes, with the page automatically refreshed every 10 minutes)

About weather observations | Map of weather stations | Latest weather observations for VIC | Other Formats
Station Details ID: 079101 Name: BEN NEVIS Lat: -37.23 Lon: 143.20 Height: 875.0 m
Data from the previous 72 hours. | See also: Recent months at Ben Nevis
Date/Time
EDT
Temp
°C
App
Temp
°C
Dew
Point
°C
Rel
Hum
%
Delta-T
°C
Wind Press
QNH
hPa
Press
MSL
hPa
Rain since
9am
mm
Dir  Spd
km/h
Gust
km/h
Spd
kts
Gust
kts
23/07:30pm 17.2 12.5 14.8 86 1.4 SW 33 50 18 27 - - 0.0
23/07:00pm 17.3 11.5 14.9 86 1.4 SSW 39 54 21 29 - - 0.0
23/06:34pm 19.3 13.2 14.1 72 3.1 SSW 39 57 21 31 - - 0.0
23/06:30pm 19.5 13.0 14.1 71 3.2 SSW 41 57 22 31 - - 0.0
23/06:01pm 22.3 14.8 12.8 55 5.6 SSW 44 63 24 34 - - 0.0
23/06:00pm 22.6 15.0 12.5 53 6.0 SSW 44 59 24 32 - - 0.0
23/05:47pm 24.7 20.0 10.6 41 8.2 SW 26 52 14 28 - - 0.0
23/05:45pm 25.2 20.8 10.3 39 8.6 SW 24 46 13 25 - - 0.0
23/05:30pm 28.0 24.1 8.8 30 11.0 WSW 19 26 10 14 - - 0.0
23/05:00pm 28.7 24.5 8.4 28 11.5 WSW 20 39 11 21 - - 0.0
23/04:30pm 29.2 25.7 7.2 25 12.3 WNW 15 32 8 17 - - 0.0
23/04:00pm 29.8 27.2 7.7 25 12.5 N 11 24 6 13 - - 0.0
23/03:30pm 30.7 28.1 7.8 24 13.0 NNW 11 20 6 11 - - 0.0
23/03:00pm 31.6 28.9 10.3 27 12.6 NNW 15 26 8 14 - - 0.0
23/02:30pm 30.5 27.6 8.3 25 12.7 N 13 28 7 15 - - 0.0
23/02:00pm 30.4 27.1 6.3 22 13.4 N 13 24 7 13 - - 0.0
23/01:30pm 31.9 28.5 7.5 22 13.9 NNW 15 30 8 16 - - 0.0
23/01:00pm 30.1 26.7 6.1 22 13.2 NNW 13 24 7 13 - - 0.0
23/12:30pm 30.3 27.4 8.1 25 12.7 NNE 13 24 7 13 - - 0.0
23/12:00pm 28.8 25.6 6.8 25 12.2 NNW 13 26 7 14 - - 0.0
23/11:30am 29.0 26.1 6.4 24 12.5 N 11 26 6 14 - - 0.0
23/11:00am 26.7 23.9 8.6 32 10.2 N 13 20 7 11 - - 0.0
23/10:30am 26.5 23.3 8.5 32 10.1 N 15 32 8 17 - - 0.0
23/10:00am 24.0 19.9 8.0 36 8.8 N 19 28 10 15 - - 0.0
23/09:30am 23.3 19.5 7.4 36 8.7 N 17 26 9 14 - - 0.0
23/09:00am 23.3 19.3 6.6 34 9.0 N 17 30 9 16 - - 0.0
23/08:30am 22.9 19.2 6.2 34 8.9 N 15 32 8 17 - - 0.0
23/08:00am 23.0 18.1 5.0 31 9.4 N 20 33 11 18 - - 0.0
23/07:30am 22.8 17.8 4.8 31 9.3 N 20 33 11 18 - - 0.0
23/07:00am 22.5 18.1 5.0 32 9.1 NNE 17 28 9 15 - - 0.0
23/06:30am 22.5 18.5 5.0 32 9.1 NNE 15 26 8 14 - - 0.0
23/06:00am 22.5 18.5 5.0 32 9.1 NNE 15 24 8 13 - - 0.0
23/05:30am 22.5 18.5 5.0 32 9.1 N 15 28 8 15 - - 0.0
23/05:00am 22.8 17.9 5.3 32 9.1 N 20 32 11 17 - - 0.0
23/04:30am 23.1 16.7 5.1 31 9.4 N 28 43 15 23 - - 0.0
23/04:00am 22.8 17.6 5.3 32 9.1 N 22 33 12 18 - - 0.0
23/03:30am 23.0 18.0 4.5 30 9.5 N 20 33 11 18 - - 0.0
23/03:00am 22.5 17.7 5.4 33 8.9 N 20 30 11 16 - - 0.0
23/02:30am 22.6 17.9 6.0 34 8.8 NNE 20 32 11 17 - - 0.0
23/02:00am 22.8 18.1 6.1 34 8.9 NNE 20 32 11 17 - - 0.0
23/01:30am 22.7 17.6 6.0 34 8.8 NNE 22 37 12 20 - - 0.0
23/01:00am 23.0 18.0 6.3 34 8.9 NNE 22 39 12 21 - - 0.0
23/12:30am 23.0 18.2 5.4 32 9.2 NNE 20 33 11 18 - - 0.0
23/12:00am 23.2 18.8 4.7 30 9.6 NNE 17 28 9 15 - - 0.0
 
Date/Time
EDT
Temp
°C
App
Temp
°C
Dew
Point
°C
Rel
Hum
%
Delta-T
°C
Wind Press
QNH
hPa
Press
MSL
hPa
Rain since
9am
mm
Dir  Spd
km/h
Gust
km/h
Spd
kts
Gust
kts
22/11:30pm 23.5 18.5 4.5 29 9.8 NNE 20 28 11 15 - - 0.0
22/11:00pm 23.8 18.7 4.2 28 10.1 NNE 20 30 11 16 - - 0.0
22/10:30pm 23.7 20.0 4.6 29 9.9 NNE 13 20 7 11 - - 0.0
22/10:00pm 23.5 19.8 4.5 29 9.8 NNE 13 19 7 10 - - 0.0
22/09:30pm 23.9 19.8 4.3 28 10.1 NNE 15 20 8 11 - - 0.0
22/09:00pm 23.5 19.8 4.5 29 9.8 NNE 13 19 7 10 - - 0.0
22/08:30pm 23.6 20.4 5.0 30 9.7 NNE 11 19 6 10 - - 0.0
22/08:00pm 23.8 20.7 5.7 31 9.6 NNE 11 19 6 10 - - 0.0
22/07:30pm 24.8 22.3 6.5 31 9.9 N 9 13 5 7 - - 0.0
22/07:00pm 25.3 23.1 5.5 28 10.5 NE 6 9 3 5 - - 0.0
22/06:30pm 25.8 23.1 5.4 27 10.9 ENE 9 13 5 7 - - 0.0
22/06:00pm 26.5 24.0 4.9 25 11.5 E 7 11 4 6 - - 0.0
22/05:30pm 26.8 24.4 5.1 25 11.6 E 7 9 4 5 - - 0.0
22/05:00pm 26.7 24.3 5.1 25 11.5 SSE 7 20 4 11 - - 0.0
22/04:30pm 27.5 25.3 5.1 24 12.0 SW 6 11 3 6 - - 0.0
22/04:00pm 26.8 24.5 5.7 26 11.4 NE 7 52 4 28 - - 0.0
22/03:30pm 26.2 23.7 4.6 25 11.4 SE 7 30 4 16 - - 0.0
22/03:00pm 25.9 23.0 4.9 26 11.1 ENE 9 19 5 10 - - 0.0
22/02:30pm 26.5 23.9 6.0 27 11.1 NE 9 15 5 8 - - 0.0
22/02:00pm 25.2 21.7 5.4 28 10.5 ENE 13 20 7 11 - - 0.0
22/01:30pm 24.6 21.5 5.4 29 10.2 NE 11 17 6 9 - - 0.0
22/01:00pm 24.5 21.5 5.8 30 10.0 NE 11 20 6 11 - - 0.0
22/12:30pm 23.5 19.8 6.3 33 9.2 NE 15 24 8 13 - - 0.0
22/12:00pm 23.4 20.1 6.2 33 9.2 NE 13 22 7 12 - - 0.0
22/11:30am 23.0 19.9 7.1 36 8.6 NE 13 22 7 12 - - 0.0
22/11:00am 21.6 18.0 5.1 34 8.5 ENE 13 22 7 12 - - 0.0
22/10:30am 20.8 17.6 5.2 36 8.0 ENE 11 20 6 11 - - 0.0
22/10:00am 20.3 15.7 3.5 33 8.4 E 17 26 9 14 - - 0.0
22/09:30am 20.3 15.8 2.2 30 8.8 E 15 20 8 11 - - 0.0
22/09:00am 19.4 13.5 -1.1 25 9.2 E 20 28 11 15 - - 0.0
22/08:30am 19.2 13.2 -1.8 24 9.3 E 20 26 11 14 - - 0.0
22/08:00am 19.1 14.2 -0.3 27 8.9 E 15 20 8 11 - - 0.0
22/07:30am 18.9 13.9 -1.0 26 9.0 E 15 17 8 9 - - 0.0
22/07:00am 18.0 12.9 -2.3 25 8.8 E 15 19 8 10 - - 0.0
22/06:30am 16.9 12.3 1.4 35 7.2 E 15 19 8 10 - - 0.0
22/06:00am 15.7 12.2 5.6 51 5.1 ESE 13 17 7 9 - - 0.0
22/05:30am 15.6 10.9 3.1 43 6.0 ESE 17 20 9 11 - - 0.0
22/05:00am 15.5 10.1 1.3 38 6.5 ESE 19 24 10 13 - - 0.0
22/04:30am 15.6 10.0 1.4 38 6.5 ESE 20 26 11 14 - - 0.0
22/04:00am 15.5 11.0 -0.3 34 7.0 SE 13 15 7 8 - - 0.0
22/03:30am 15.6 12.5 3.4 44 5.9 ESE 9 15 5 8 - - 0.0
22/03:00am 14.3 11.7 4.0 50 5.0 SSW 7 7 4 4 - - 0.0
22/02:30am 13.4 10.3 3.8 52 4.6 SW 9 13 5 7 - - 0.0
22/02:00am 13.2 10.7 4.6 56 4.2 WSW 7 11 4 6 - - 0.0
22/01:30am 14.0 11.3 5.4 56 4.2 S 9 11 5 6 - - 0.0
22/01:00am 13.2 11.5 8.3 72 2.6 SE 7 11 4 6 - - 0.0
22/12:30am 13.5 11.0 9.6 77 2.1 SE 13 17 7 9 - - 0.0
22/12:00am 13.5 10.2 9.6 77 2.1 ESE 17 20 9 11 - - 0.0
 
Date/Time
EDT
Temp
°C
App
Temp
°C
Dew
Point
°C
Rel
Hum
%
Delta-T
°C
Wind Press
QNH
hPa
Press
MSL
hPa
Rain since
9am
mm
Dir  Spd
km/h
Gust
km/h
Spd
kts
Gust
kts
21/11:30pm 13.3 10.7 9.5 78 2.0 SSE 13 15 7 8 - - 0.0
21/11:00pm 13.5 10.6 9.6 77 2.1 SSE 15 20 8 11 - - 0.0
21/10:30pm 13.6 9.8 9.1 74 2.4 SSE 19 24 10 13 - - 0.0
21/10:00pm 14.4 10.2 8.4 67 3.2 SSE 20 30 11 16 - - 0.0
21/09:30pm 14.9 10.6 7.9 63 3.7 SSE 20 30 11 16 - - 0.0
21/09:00pm 15.1 11.9 8.6 65 3.5 SSE 15 20 8 11 - - 0.0
21/08:30pm 16.3 12.4 8.5 60 4.2 SSE 19 28 10 15 - - 0.0
21/08:00pm 17.3 14.5 8.4 56 4.8 SSE 13 24 7 13 - - 0.0
21/07:30pm 18.2 15.1 8.7 54 5.1 S 15 24 8 13 - - 0.0
21/07:00pm 18.7 15.9 8.4 51 5.6 S 13 24 7 13 - - 0.0
21/06:30pm 20.0 16.5 8.7 48 6.2 S 17 30 9 16 - - 0.0
21/06:00pm 20.6 17.4 8.3 45 6.7 SSW 15 28 8 15 - - 0.0
21/05:30pm 20.9 18.1 8.5 45 6.8 SSW 13 24 7 13 - - 0.0
21/05:00pm 20.8 17.7 8.8 46 6.6 SSW 15 24 8 13 - - 0.0
21/04:30pm 20.7 17.9 8.7 46 6.6 SSW 13 24 7 13 - - 0.0
21/04:00pm 20.1 16.5 8.4 47 6.4 SSW 17 28 9 15 - - 0.0
21/03:30pm 20.0 17.3 9.0 49 6.1 SSW 13 26 7 14 - - 0.0
21/03:00pm 19.6 16.6 9.2 51 5.7 SSW 15 26 8 14 - - 0.0
21/02:30pm 18.9 16.7 9.4 54 5.2 S 11 22 6 12 - - 0.0
21/02:00pm 18.1 15.0 8.7 54 5.1 SSW 15 28 8 15 - - 0.0
21/01:30pm 16.9 14.1 8.6 58 4.5 SSW 13 22 7 12 - - 0.0
21/01:00pm 16.8 14.2 9.2 61 4.1 S 13 26 7 14 - - 0.0
21/12:30pm 15.7 12.6 8.7 63 3.7 SSW 15 24 8 13 - - 0.0
21/12:00pm 14.0 11.4 7.8 66 3.2 S 11 17 6 9 - - 0.0
21/11:30am 13.5 10.4 7.3 66 3.2 S 13 22 7 12 - - 0.0
21/11:00am 12.3 9.1 6.8 69 2.8 S 13 22 7 12 - - 0.0
21/10:30am 12.3 9.3 7.6 73 2.4 S 13 20 7 11 - - 0.0
21/10:00am 10.7 7.0 6.3 74 2.2 S 15 26 8 14 - - 0.0
21/09:30am 10.1 6.8 6.3 77 1.9 S 13 20 7 11 - - 0.0
21/09:00am 9.5 6.4 5.7 77 1.8 SSE 11 20 6 11 - - 0.4
21/08:30am 8.5 4.0 6.3 86 1.1 S 19 28 10 15 - - 0.4
21/08:00am 7.8 3.5 6.9 94 0.4 S 19 28 10 15 - - 0.4
21/07:30am 7.1 2.6 7.0 99 0.0 S 20 30 11 16 - - 0.4
21/07:00am 6.7 2.1 6.6 99 0.0 S 20 28 11 15 - - 0.4
21/06:30am 6.8 2.4 6.5 98 0.1 S 19 30 10 16 - - 0.4
21/06:00am 6.8 2.2 6.4 97 0.2 S 20 37 11 20 - - 0.4
21/05:30am 6.8 2.6 5.9 94 0.4 SSW 17 30 9 16 - - 0.4
21/05:00am 6.8 2.1 5.1 89 0.8 S 19 35 10 19 - - 0.4
21/04:30am 6.9 2.0 5.1 88 0.8 S 20 32 11 17 - - 0.4
21/04:00am 6.9 2.0 5.1 88 0.8 S 20 35 11 19 - - 0.4
21/03:30am 6.9 2.2 5.2 89 0.8 S 19 32 10 17 - - 0.4
21/03:00am 6.8 1.9 5.1 89 0.8 S 20 37 11 20 - - 0.4
21/02:30am 6.7 1.4 5.2 90 0.7 S 22 41 12 22 - - 0.4
21/02:00am 6.7 1.1 5.5 92 0.6 S 24 43 13 23 - - 0.4
21/01:30am 6.7 1.2 5.8 94 0.4 S 24 43 13 23 - - 0.4
21/01:00am 6.7 1.2 5.7 93 0.5 S 24 44 13 24 - - 0.4
21/12:30am 6.7 0.8 6.0 95 0.3 S 26 39 14 21 - - 0.4
21/12:17am 6.7 0.5 6.0 95 0.3 S 28 46 15 25 - - 0.4
21/12:00am 6.7 -0.3 6.0 95 0.3 S 32 46 17 25 - - 0.4
 
Date/Time
EDT
Temp
°C
App
Temp
°C
Dew
Point
°C
Rel
Hum
%
Delta-T
°C
Wind Press
QNH
hPa
Press
MSL
hPa
Rain since
9am
mm
Dir  Spd
km/h
Gust
km/h
Spd
kts
Gust
kts
20/11:30pm 6.8 -0.2 6.2 96 0.3 S 32 50 17 27 - - 0.4
20/11:04pm 6.8 -0.2 6.1 95 0.3 S 32 50 17 27 - - 0.4
20/11:00pm 6.8 -0.4 6.1 95 0.3 S 33 50 18 27 - - 0.4
20/10:30pm 7.1 0.1 6.2 94 0.4 S 32 50 17 27 - - 0.4
20/10:06pm 7.3 1.1 6.2 93 0.5 S 28 50 15 27 - - 0.4
20/10:00pm 7.3 1.1 6.2 93 0.5 S 28 43 15 23 - - 0.4
20/09:30pm 7.7 1.2 6.3 91 0.7 SSW 30 48 16 26 - - 0.4
20/09:00pm 8.1 2.0 6.4 89 0.8 SSW 28 54 15 29 - - 0.4
20/08:30pm 8.8 2.8 7.1 89 0.8 SSW 28 46 15 25 - - 0.4
20/08:00pm 9.0 2.2 7.1 88 0.9 SSW 32 52 17 28 - - 0.4

Other Formats:

Comma delimited format used in spreadsheet applications
http://www.bom.gov.au/fwo/IDV60801/IDV60801.94835.axf

JavaScript Object Notation format (JSON) in row-major order
http://www.bom.gov.au/fwo/IDV60801/IDV60801.94835.json